Time;durP1;ratioP1;P1;durP2;ratioP2;P2;SDS_P1;SDS_P2;PMS_P1;PMS_P2;Temp;Humidity;BMP_temperature;BMP_pressure;BME280_temperature;BME280_humidity;BME280_pressure;Samples;Min_cycle;Max_cycle;Signal;HPM_P1;HPM_P2
2021/08/30 00:02:49;;;;;;;17.30;15.55;;;;;;;17.84;78.02;101728.03;6186414;28;20309;-50
2021/08/30 00:06:10;;;;;;;15.88;14.45;;;;;;;17.54;79.00;101721.69;6191063;28;20241;-52
2021/08/30 00:09:31;;;;;;;16.73;15.03;;;;;;;17.72;78.52;101723.06;6195058;28;20233;-51
2021/08/30 00:12:52;;;;;;;15.90;14.35;;;;;;;17.87;77.87;101727.97;6188682;28;20252;-52
2021/08/30 00:16:14;;;;;;;16.20;14.63;;;;;;;17.92;77.42;101722.56;6189296;28;20630;-50
2021/08/30 00:19:35;;;;;;;18.57;15.73;;;;;;;18.02;77.16;101723.22;6169554;28;20320;-52
2021/08/30 00:22:56;;;;;;;16.00;14.37;;;;;;;17.94;77.12;101722.53;6175895;28;20250;-51
2021/08/30 00:26:17;;;;;;;15.95;14.32;;;;;;;17.92;77.22;101724.34;6176956;28;20253;-50
2021/08/30 00:29:38;;;;;;;15.52;14.02;;;;;;;17.84;77.65;101716.63;6172939;28;20237;-47
2021/08/30 00:33:00;;;;;;;16.55;14.95;;;;;;;17.61;78.69;101714.53;6192262;28;20237;-50
2021/08/30 00:36:22;;;;;;;17.52;15.73;;;;;;;17.56;78.88;101717.25;6187396;28;20225;-47
2021/08/30 00:39:43;;;;;;;17.45;15.43;;;;;;;17.76;78.50;101718.53;6199219;28;20546;-51
2021/08/30 00:43:05;;;;;;;16.95;15.55;;;;;;;17.75;78.57;101719.47;6182124;28;20523;-51
2021/08/30 00:46:25;;;;;;;15.60;14.20;;;;;;;17.82;78.29;101714.00;6178762;28;20257;-50
2021/08/30 00:49:48;;;;;;;17.55;15.82;;;;;;;17.87;78.09;101716.53;6204565;28;20341;-47
2021/08/30 00:53:09;;;;;;;16.90;15.23;;;;;;;17.80;77.80;101721.09;6183977;28;20241;-50
2021/08/30 00:56:30;;;;;;;15.13;13.63;;;;;;;17.73;78.41;101714.22;6191233;28;20218;-52
2021/08/30 00:59:52;;;;;;;15.50;14.05;;;;;;;17.82;77.92;101727.19;6193937;28;20233;-51
2021/08/30 01:03:13;;;;;;;18.70;16.97;;;;;;;17.80;77.72;101726.34;6190219;28;20259;-52
2021/08/30 01:06:43;;;;;;;14.80;13.40;;;;;;;17.78;77.92;101722.88;6191661;28;20479;-51
2021/08/30 01:10:10;;;;;;;16.45;14.85;;;;;;;17.80;78.03;101726.34;6195017;28;20224;-48
2021/08/30 01:13:34;;;;;;;16.70;15.30;;;;;;;17.56;78.96;101733.06;6200092;28;20225;-48
2021/08/30 01:16:55;;;;;;;18.38;16.58;;;;;;;17.68;78.41;101734.53;6191255;28;20308;-53
2021/08/30 01:20:25;;;;;;;17.95;14.77;;;;;;;17.51;79.31;101735.81;6207307;28;20233;-47
2021/08/30 01:23:52;;;;;;;16.85;15.35;;;;;;;17.50;79.06;101734.06;6182661;28;20237;-48
2021/08/30 01:27:13;;;;;;;16.70;14.55;;;;;;;17.40;79.53;101740.47;6194751;28;20233;-48
2021/08/30 01:30:37;;;;;;;16.70;15.10;;;;;;;17.57;78.90;101733.94;6196746;28;20229;-51
2021/08/30 01:34:00;;;;;;;16.42;14.80;;;;;;;17.68;78.31;101745.97;6186027;28;20245;-50
2021/08/30 01:37:21;;;;;;;15.45;14.05;;;;;;;17.62;78.58;101742.59;6195020;28;20233;-49
2021/08/30 01:40:43;;;;;;;15.85;14.45;;;;;;;17.73;77.91;101735.31;6192536;28;20226;-50
2021/08/30 01:44:06;;;;;;;14.85;13.50;;;;;;;17.75;78.01;101744.03;6186322;28;20237;-47
2021/08/30 01:47:27;;;;;;;16.77;15.07;;;;;;;17.80;77.74;101731.63;6192230;28;20237;-51
2021/08/30 01:50:51;;;;;;;16.17;14.68;;;;;;;17.78;78.01;101736.06;6181313;28;20225;-52
2021/08/30 01:54:13;;;;;;;15.48;14.13;;;;;;;17.67;78.51;101730.19;6180051;28;20269;-49
2021/08/30 01:57:43;;;;;;;13.67;12.37;;;;;;;17.64;78.17;101736.41;6172746;28;20237;-49
2021/08/30 02:01:03;;;;;;;15.18;13.68;;;;;;;17.68;77.74;101732.78;6182648;28;20225;-49
2021/08/30 02:04:23;;;;;;;14.17;12.87;;;;;;;17.53;78.60;101735.78;6177993;28;20233;-49
2021/08/30 02:07:46;;;;;;;15.82;14.20;;;;;;;17.67;77.91;101735.44;6165531;28;20234;-50
2021/08/30 02:11:10;;;;;;;15.80;14.33;;;;;;;17.42;79.08;101725.50;6195518;28;20306;-49
2021/08/30 02:14:31;;;;;;;16.50;14.87;;;;;;;17.54;78.81;101729.59;6192265;28;20225;-51
2021/08/30 02:17:58;;;;;;;17.63;16.02;;;;;;;17.39;79.32;101725.59;6159612;28;20222;-48
2021/08/30 02:21:23;;;;;;;14.73;13.15;;;;;;;17.41;79.12;101728.16;6200446;28;20229;-51
2021/08/30 02:24:51;;;;;;;16.10;14.55;;;;;;;17.30;79.97;101726.63;6204099;28;20504;-49
2021/08/30 02:28:13;;;;;;;16.70;13.43;;;;;;;17.31;79.79;101735.41;6185867;28;20232;-49
2021/08/30 02:31:36;;;;;;;19.23;17.27;;;;;;;17.34;79.53;101732.69;6203359;28;20230;-52
2021/08/30 02:35:01;;;;;;;13.80;12.57;;;;;;;17.51;79.20;101730.53;6200458;28;20229;-48
2021/08/30 02:38:23;;;;;;;15.77;14.17;;;;;;;17.56;79.25;101732.19;6181511;28;20325;-48
2021/08/30 02:41:45;;;;;;;15.53;14.07;;;;;;;17.60;78.66;101724.22;6174314;28;21969;-54
2021/08/30 02:45:09;;;;;;;15.57;14.27;;;;;;;17.73;78.25;101730.03;6185820;28;20252;-49
2021/08/30 02:48:31;;;;;;;16.17;14.65;;;;;;;17.68;78.01;101724.00;6191266;28;20226;-53
2021/08/30 02:51:54;;;;;;;17.42;15.82;;;;;;;17.51;78.60;101730.53;6180114;28;20222;-53
2021/08/30 02:55:15;;;;;;;15.23;13.90;;;;;;;17.59;78.37;101726.88;6203638;28;20253;-53
2021/08/30 02:58:38;;;;;;;15.27;13.93;;;;;;;17.48;78.99;101725.34;6183227;28;20226;-54
2021/08/30 03:02:00;;;;;;;14.98;13.65;;;;;;;17.50;78.93;101728.81;6180984;28;20280;-52
2021/08/30 03:05:21;;;;;;;17.85;15.75;;;;;;;17.69;78.12;101723.09;6191247;28;20465;-49
2021/08/30 03:08:42;;;;;;;16.73;15.23;;;;;;;17.62;78.30;101716.25;6182543;28;20409;-47
2021/08/30 03:12:06;;;;;;;19.20;15.00;;;;;;;17.43;78.98;101721.13;6174325;28;20339;-50
2021/08/30 03:15:32;;;;;;;14.77;13.37;;;;;;;17.37;79.29;101721.22;6193059;28;20229;-50
2021/08/30 03:18:54;;;;;;;16.17;14.57;;;;;;;17.32;79.46;101713.44;6171730;28;20324;-47
2021/08/30 03:22:16;;;;;;;15.88;14.30;;;;;;;17.38;79.53;101723.84;6180896;28;20332;-51
2021/08/30 03:25:38;;;;;;;15.87;14.37;;;;;;;17.32;79.28;101721.34;6188372;28;20460;-49
2021/08/30 03:29:01;;;;;;;16.80;15.03;;;;;;;17.33;79.34;101725.69;6190528;28;20226;-51
2021/08/30 03:32:23;;;;;;;16.40;14.80;;;;;;;17.36;79.01;101723.00;6184129;28;20221;-52
2021/08/30 03:35:45;;;;;;;18.33;16.63;;;;;;;17.29;79.29;101729.31;6195422;28;20229;-50
2021/08/30 03:39:07;;;;;;;17.17;15.67;;;;;;;17.29;79.86;101726.66;6201474;28;20221;-49
2021/08/30 03:42:28;;;;;;;14.33;13.03;;;;;;;17.53;78.87;101730.53;6171216;28;20908;-48
2021/08/30 03:45:49;;;;;;;15.98;14.10;;;;;;;17.55;78.84;101730.50;6205211;28;20225;-51
2021/08/30 03:49:12;;;;;;;15.03;13.63;;;;;;;17.57;78.73;101733.94;6172227;28;20233;-47
2021/08/30 03:52:35;;;;;;;17.20;15.40;;;;;;;17.62;78.50;101730.31;6195660;28;20488;-49
2021/08/30 03:55:58;;;;;;;15.07;13.57;;;;;;;17.54;78.68;101732.22;6207548;28;20229;-50
2021/08/30 03:59:21;;;;;;;16.50;14.20;;;;;;;17.63;78.56;101728.53;6176658;28;20328;-50
2021/08/30 04:02:42;;;;;;;14.95;13.43;;;;;;;17.51;79.01;101727.06;6189967;28;20308;-48
2021/08/30 04:06:07;;;;;;;16.25;14.45;;;;;;;17.49;78.70;101729.72;6189292;28;20231;-51
2021/08/30 04:09:28;;;;;;;16.83;15.20;;;;;;;17.48;78.85;101743.78;6172200;28;20226;-48
2021/08/30 04:12:49;;;;;;;15.87;14.30;;;;;;;17.58;78.76;101744.44;6179024;28;20242;-54
2021/08/30 04:16:10;;;;;;;15.10;13.70;;;;;;;17.64;78.58;101744.31;6194708;28;20261;-50
2021/08/30 04:19:30;;;;;;;16.40;15.00;;;;;;;17.65;78.51;101750.44;6184428;28;20234;-49
2021/08/30 04:22:53;;;;;;;15.93;14.53;;;;;;;17.64;78.20;101740.78;6180673;28;20399;-51
2021/08/30 04:26:14;;;;;;;15.35;14.00;;;;;;;17.66;77.90;101741.59;6191700;28;20531;-51
2021/08/30 04:29:35;;;;;;;16.10;14.50;;;;;;;17.55;78.27;101748.94;6193221;28;20319;-50
2021/08/30 04:32:56;;;;;;;17.70;15.88;;;;;;;17.54;78.48;101755.06;6189573;28;20217;-53
2021/08/30 04:36:18;;;;;;;16.95;15.30;;;;;;;17.54;78.36;101752.44;6201897;28;20818;-49
2021/08/30 04:39:40;;;;;;;16.45;14.95;;;;;;;17.56;78.27;101758.53;6169564;28;20289;-50
2021/08/30 04:43:01;;;;;;;16.63;14.95;;;;;;;17.54;78.59;101766.47;6190124;28;20323;-48
2021/08/30 04:46:22;;;;;;;16.38;14.98;;;;;;;17.60;78.48;101763.72;6196601;28;20261;-53
2021/08/30 04:49:42;;;;;;;18.70;13.50;;;;;;;17.48;78.79;101756.09;6183880;28;20241;-51
2021/08/30 04:53:04;;;;;;;16.30;14.90;;;;;;;17.42;78.92;101757.09;6189302;28;20565;-51
2021/08/30 04:56:26;;;;;;;17.27;15.52;;;;;;;17.32;79.74;101766.09;6201849;28;20233;-51
2021/08/30 04:59:47;;;;;;;16.33;14.83;;;;;;;17.41;79.10;101765.00;6193748;28;20221;-50
2021/08/30 05:03:08;;;;;;;16.02;14.52;;;;;;;17.54;78.49;101773.50;6186431;28;20682;-52
2021/08/30 05:06:29;;;;;;;16.92;14.98;;;;;;;17.51;78.67;101766.56;6194118;28;20222;-51
2021/08/30 05:09:50;;;;;;;15.68;14.20;;;;;;;17.57;78.45;101776.09;6202302;28;20253;-52
2021/08/30 05:13:12;;;;;;;15.80;14.40;;;;;;;17.51;78.53;101772.69;6180822;28;20711;-48
2021/08/30 05:16:33;;;;;;;16.50;14.80;;;;;;;17.70;77.86;101772.28;6174256;28;20249;-52
2021/08/30 05:19:54;;;;;;;16.60;15.05;;;;;;;17.56;78.23;101769.06;6169852;28;20217;-46
2021/08/30 05:23:15;;;;;;;17.38;15.65;;;;;;;17.74;77.40;101773.94;6182598;28;20612;-50
2021/08/30 05:26:36;;;;;;;16.35;14.95;;;;;;;17.88;76.81;101777.13;6182488;28;20547;-49
2021/08/30 05:29:58;;;;;;;13.98;12.68;;;;;;;17.75;76.97;101780.91;6192811;28;20600;-51
2021/08/30 05:33:20;;;;;;;14.70;13.43;;;;;;;17.89;76.47;101786.75;6172402;28;20225;-48
2021/08/30 05:36:41;;;;;;;14.77;13.45;;;;;;;17.77;76.84;101789.63;6190849;28;20222;-51
2021/08/30 05:40:02;;;;;;;16.35;12.82;;;;;;;17.65;77.55;101784.66;6196501;28;20510;-52
2021/08/30 05:43:24;;;;;;;15.65;14.35;;;;;;;17.69;77.09;101792.47;6201975;28;20221;-51
2021/08/30 05:46:46;;;;;;;16.10;14.43;;;;;;;17.76;77.21;101789.66;6200229;28;20237;-52
2021/08/30 05:50:09;;;;;;;14.33;13.10;;;;;;;17.80;77.06;101788.72;6204612;28;20237;-53
2021/08/30 05:53:30;;;;;;;14.67;13.27;;;;;;;17.87;76.56;101792.97;6200718;28;20646;-50
2021/08/30 05:56:51;;;;;;;14.02;12.82;;;;;;;17.87;76.12;101785.94;6200389;28;20232;-51
2021/08/30 06:00:13;;;;;;;14.32;12.82;;;;;;;17.96;75.91;101790.09;6206177;28;20225;-46
2021/08/30 06:03:36;;;;;;;14.63;13.17;;;;;;;17.98;75.88;101790.06;6186818;28;20531;-50
2021/08/30 06:06:57;;;;;;;14.50;13.10;;;;;;;18.07;75.40;101788.06;6206708;28;20241;-52
2021/08/30 06:10:18;;;;;;;13.77;12.38;;;;;;;18.13;75.35;101787.06;6208566;28;20248;-53
2021/08/30 06:13:39;;;;;;;12.82;11.65;;;;;;;18.35;74.83;101786.50;6202436;28;20240;-51
2021/08/30 06:16:59;;;;;;;15.00;13.60;;;;;;;18.29;74.29;101792.81;6203264;28;20229;-51
2021/08/30 06:20:22;;;;;;;13.13;11.90;;;;;;;18.57;73.76;101790.31;6199610;28;20222;-50
2021/08/30 06:23:43;;;;;;;12.75;11.55;;;;;;;18.30;74.68;101794.53;6204169;28;20324;-51
2021/08/30 06:27:04;;;;;;;13.32;12.23;;;;;;;18.20;74.63;101787.75;6204849;28;20237;-52
2021/08/30 06:30:25;;;;;;;13.23;11.90;;;;;;;18.19;74.85;101786.03;6202826;28;20575;-51
2021/08/30 06:33:46;;;;;;;11.68;10.70;;;;;;;18.41;74.08;101791.63;6205886;28;20261;-50
2021/08/30 06:37:09;;;;;;;13.23;11.98;;;;;;;18.48;73.51;101788.78;6207691;28;20595;-50
2021/08/30 06:40:30;;;;;;;11.73;10.80;;;;;;;18.47;73.74;101799.34;6173787;28;20237;-49
2021/08/30 06:43:51;;;;;;;12.80;11.60;;;;;;;18.67;72.91;101791.78;6206201;28;20590;-52
2021/08/30 06:47:12;;;;;;;12.88;11.27;;;;;;;18.75;72.61;101796.00;6207371;28;20230;-50
2021/08/30 06:50:33;;;;;;;12.57;11.48;;;;;;;18.68;72.42;101796.13;6200024;28;20725;-52
2021/08/30 06:53:55;;;;;;;11.95;10.85;;;;;;;18.90;71.92;101795.56;6207964;28;20237;-50
2021/08/30 06:57:16;;;;;;;10.90;10.00;;;;;;;18.93;71.58;101790.22;6202243;28;20233;-51
2021/08/30 07:00:37;;;;;;;11.05;10.00;;;;;;;18.99;71.25;101787.41;6189889;28;20229;-50
2021/08/30 07:04:01;;;;;;;12.35;11.20;;;;;;;19.27;70.41;101790.09;6202921;28;20249;-49
2021/08/30 07:07:21;;;;;;;9.77;8.77;;;;;;;19.39;69.35;101791.50;6203418;28;20316;-48
2021/08/30 07:10:43;;;;;;;10.48;9.45;;;;;;;19.63;69.21;101796.94;6207926;28;20233;-49
2021/08/30 07:14:05;;;;;;;9.98;9.07;;;;;;;19.61;67.84;101794.34;6180716;28;20421;-48
2021/08/30 07:17:25;;;;;;;11.95;10.75;;;;;;;19.29;68.40;101792.72;6194952;28;20233;-51
2021/08/30 07:20:48;;;;;;;9.73;8.93;;;;;;;19.01;69.57;101797.91;6198055;28;20225;-51
2021/08/30 07:24:08;;;;;;;13.98;9.43;;;;;;;19.37;67.98;101785.41;6198114;28;20241;-51
2021/08/30 07:27:30;;;;;;;9.55;8.40;;;;;;;19.61;67.51;101799.63;6196790;28;20239;-47
2021/08/30 07:30:51;;;;;;;10.52;9.23;;;;;;;19.47;67.14;101800.06;6204395;28;20225;-52
2021/08/30 07:34:13;;;;;;;11.18;9.45;;;;;;;19.37;67.80;101806.53;6203527;28;20261;-49
2021/08/30 07:37:34;;;;;;;9.45;8.52;;;;;;;19.02;69.54;101811.06;6198628;28;20229;-52
2021/08/30 07:40:55;;;;;;;9.07;8.32;;;;;;;18.99;69.62;101811.16;6189896;28;20568;-53
2021/08/30 07:44:18;;;;;;;8.65;7.95;;;;;;;19.33;68.53;101814.56;6198661;28;20610;-50
2021/08/30 07:47:40;;;;;;;8.73;7.95;;;;;;;19.53;67.18;101817.50;6202685;28;20229;-53
2021/08/30 07:51:01;;;;;;;9.27;8.15;;;;;;;19.58;67.20;101825.25;6192849;28;20261;-51
2021/08/30 07:54:22;;;;;;;10.98;9.93;;;;;;;19.19;67.84;101821.16;6197860;28;20237;-48
2021/08/30 07:57:43;;;;;;;8.80;7.95;;;;;;;19.20;67.80;101820.22;6201805;28;20494;-48
2021/08/30 08:01:06;;;;;;;7.60;6.78;;;;;;;19.16;67.28;101823.03;6196577;28;20351;-55
2021/08/30 08:04:27;;;;;;;10.38;7.18;;;;;;;19.08;67.47;101815.31;6202061;28;20473;-52
2021/08/30 08:07:48;;;;;;;8.13;7.43;;;;;;;19.34;66.95;101818.97;6194039;28;20601;-52
2021/08/30 08:11:09;;;;;;;9.45;7.10;;;;;;;19.36;66.42;101823.28;6198498;28;20229;-50
2021/08/30 08:14:30;;;;;;;10.25;7.18;;;;;;;19.44;66.26;101820.41;6187833;28;20599;-52
2021/08/30 08:17:52;;;;;;;10.00;7.10;;;;;;;19.45;66.37;101825.66;6197101;28;20233;-48
2021/08/30 08:21:13;;;;;;;8.52;7.82;;;;;;;19.76;65.79;101832.66;6188965;28;20524;-50
2021/08/30 08:24:35;;;;;;;9.32;8.45;;;;;;;19.74;66.10;101831.84;6175316;28;20226;-51
2021/08/30 08:27:57;;;;;;;6.95;6.35;;;;;;;20.53;64.08;101832.78;6194947;28;20221;-55
2021/08/30 08:31:18;;;;;;;11.02;7.00;;;;;;;20.95;62.01;101839.28;6188487;28;20237;-52
2021/08/30 08:34:40;;;;;;;8.23;7.00;;;;;;;20.59;62.65;101832.59;6186193;28;20242;-52
2021/08/30 08:38:01;;;;;;;6.20;5.60;;;;;;;20.49;62.10;101836.47;6178832;28;20599;-51
2021/08/30 08:41:22;;;;;;;7.82;7.03;;;;;;;20.33;62.15;101837.88;6198229;28;20704;-54
2021/08/30 08:44:46;;;;;;;7.97;7.35;;;;;;;20.27;62.93;101834.53;6193939;28;20245;-45
2021/08/30 08:48:08;;;;;;;18.58;16.90;;;;;;;20.71;62.68;101843.69;6198020;28;20554;-49
2021/08/30 08:51:30;;;;;;;151.15;139.57;;;;;;;21.04;61.90;101841.59;6195153;28;20294;-53
2021/08/30 08:54:51;;;;;;;97.68;89.38;;;;;;;21.41;61.35;101842.88;6202141;28;20229;-52
2021/08/30 08:58:14;;;;;;;141.57;132.68;;;;;;;21.28;60.90;101845.09;6201095;28;20232;-52
2021/08/30 09:01:37;;;;;;;819.72;755.97;;;;;;;21.45;60.86;101846.28;6195714;28;20397;-52
2021/08/30 09:04:59;;;;;;;707.00;651.25;;;;;;;21.56;59.58;101836.16;6200448;28;20245;-46
2021/08/30 09:08:31;;;;;;;961.03;882.00;;;;;;;21.58;59.97;101834.31;6192434;28;20605;-51
2021/08/30 09:11:56;;;;;;;681.58;630.92;;;;;;;21.61;58.50;101836.81;6190594;28;20552;-48
2021/08/30 09:15:20;;;;;;;58.38;53.83;;;;;;;20.62;58.70;101852.78;6178377;28;20245;-53
2021/08/30 09:18:41;;;;;;;19.17;17.58;;;;;;;20.63;59.41;101858.03;6206630;28;20805;-51
2021/08/30 09:22:03;;;;;;;7.72;6.93;;;;;;;20.58;59.07;101861.72;6205171;28;20521;-53
2021/08/30 09:25:27;;;;;;;8.73;5.95;;;;;;;20.35;59.85;101862.50;6204499;28;20249;-50
2021/08/30 09:28:53;;;;;;;6.00;5.50;;;;;;;19.97;60.54;101860.19;6204691;28;20327;-52
2021/08/30 09:32:16;;;;;;;6.55;6.05;;;;;;;20.39;60.31;101859.69;6204915;28;20565;-52
2021/08/30 09:35:37;;;;;;;7.25;6.55;;;;;;;20.25;60.50;101862.81;6200958;28;20241;-53
2021/08/30 09:39:01;;;;;;;7.22;6.63;;;;;;;19.93;61.62;101862.97;6200920;28;20610;-52
2021/08/30 09:42:24;;;;;;;7.65;6.93;;;;;;;20.08;61.28;101862.50;6174654;28;20317;-50
2021/08/30 09:45:45;;;;;;;6.30;5.80;;;;;;;19.65;62.64;101853.25;6174304;28;20777;-52
2021/08/30 09:49:06;;;;;;;6.25;5.78;;;;;;;19.94;61.97;101864.72;6184983;28;20221;-52
2021/08/30 09:52:28;;;;;;;7.30;6.70;;;;;;;19.93;62.06;101870.91;6195004;28;20226;-53
2021/08/30 09:55:49;;;;;;;7.32;6.35;;;;;;;20.27;60.95;101862.75;6208146;28;20241;-48
2021/08/30 09:59:13;;;;;;;6.40;5.80;;;;;;;20.20;61.40;101866.50;6194769;28;20462;-52
2021/08/30 10:02:34;;;;;;;7.22;6.53;;;;;;;19.95;61.75;101866.44;6192298;28;20229;-47
2021/08/30 10:05:56;;;;;;;7.95;6.20;;;;;;;20.22;61.49;101864.69;6173927;28;20234;-51
2021/08/30 10:09:18;;;;;;;7.18;6.55;;;;;;;20.21;61.74;101861.19;6165654;28;20273;-51
2021/08/30 10:12:41;;;;;;;7.53;6.93;;;;;;;20.29;61.59;101870.66;6176762;28;20242;-53
2021/08/30 10:16:04;;;;;;;8.38;7.43;;;;;;;20.21;61.97;101863.81;6176638;28;20686;-51
2021/08/30 10:19:27;;;;;;;7.28;6.60;;;;;;;19.82;62.71;101864.19;6176957;28;20230;-50
2021/08/30 10:22:58;;;;;;;8.38;7.68;;;;;;;19.93;62.37;101873.56;6179378;28;20253;-49
2021/08/30 10:26:20;;;;;;;7.43;6.68;;;;;;;19.83;62.23;101863.28;6190737;28;20240;-50
2021/08/30 10:29:44;;;;;;;7.82;6.47;;;;;;;20.03;61.34;101864.44;6159412;28;20239;-49
2021/08/30 10:33:08;;;;;;;7.68;7.07;;;;;;;19.93;61.75;101869.16;6174559;28;20627;-48
2021/08/30 10:36:30;;;;;;;7.53;6.90;;;;;;;19.99;62.75;101862.81;6185935;28;20238;-53
2021/08/30 10:39:54;;;;;;;10.15;9.25;;;;;;;19.97;62.61;101865.50;6177552;28;20317;-53
2021/08/30 10:43:16;;;;;;;7.95;6.63;;;;;;;19.86;62.58;101873.75;6186327;28;20246;-51
2021/08/30 10:46:39;;;;;;;7.75;7.03;;;;;;;20.60;60.99;101871.38;6204297;28;20221;-51
2021/08/30 10:50:02;;;;;;;7.63;7.00;;;;;;;21.90;57.55;101867.47;6195777;28;20237;-52
2021/08/30 10:53:24;;;;;;;7.03;6.43;;;;;;;22.56;54.93;101856.81;6191815;28;20749;-46
2021/08/30 10:56:57;;;;;;;6.35;5.82;;;;;;;23.13;53.67;101859.66;6188050;28;20230;-49
2021/08/30 11:00:29;;;;;;;6.60;6.10;;;;;;;23.21;52.84;101869.94;6175990;28;20238;-53
2021/08/30 11:03:57;;;;;;;5.80;5.35;;;;;;;23.12;53.22;101865.88;6196300;28;20248;-46
2021/08/30 11:07:24;;;;;;;5.72;5.22;;;;;;;22.37;54.05;101867.38;6180171;28;20230;-49
2021/08/30 11:10:45;;;;;;;9.50;6.22;;;;;;;22.25;54.51;101861.69;6195158;28;20780;-49
2021/08/30 11:14:08;;;;;;;7.18;6.47;;;;;;;22.21;55.50;101867.09;6196188;28;20622;-53
2021/08/30 11:17:30;;;;;;;5.55;5.10;;;;;;;22.83;54.06;101861.84;6190261;28;20270;-52
2021/08/30 11:20:50;;;;;;;6.78;6.20;;;;;;;23.23;53.55;101856.59;6196826;28;20237;-50
2021/08/30 11:24:24;;;;;;;5.78;5.15;;;;;;;22.76;53.96;101865.69;6172391;28;20229;-47
2021/08/30 11:27:45;;;;;;;6.38;5.75;;;;;;;22.66;53.97;101867.03;6174770;28;20229;-52
2021/08/30 11:31:06;;;;;;;6.15;5.63;;;;;;;22.21;55.72;101867.09;6172673;28;20226;-53
2021/08/30 11:34:30;;;;;;;6.63;6.05;;;;;;;21.53;56.13;101866.25;6184202;28;20230;-49
2021/08/30 11:37:51;;;;;;;7.13;6.45;;;;;;;21.73;57.49;101869.94;6193734;28;20233;-48
2021/08/30 11:41:13;;;;;;;6.00;5.50;;;;;;;21.22;58.18;101879.78;6197819;28;20772;-48
2021/08/30 11:44:35;;;;;;;6.82;6.13;;;;;;;21.04;58.40;101871.59;6193711;28;20238;-52
2021/08/30 11:47:56;;;;;;;6.43;5.93;;;;;;;21.10;59.00;101885.53;6183506;28;20229;-50
2021/08/30 11:51:24;;;;;;;8.38;7.57;;;;;;;21.07;58.95;101873.25;6172695;28;20627;-51
2021/08/30 11:54:58;;;;;;;7.15;6.32;;;;;;;21.19;59.05;101875.47;6178339;28;20237;-53
2021/08/30 11:58:30;;;;;;;5.90;5.43;;;;;;;21.38;58.14;101885.34;6155943;28;20226;-52
2021/08/30 12:01:51;;;;;;;6.30;5.70;;;;;;;21.45;57.91;101880.75;6176627;28;20309;-51
2021/08/30 12:05:12;;;;;;;9.05;8.20;;;;;;;21.39;58.14;101881.81;6175882;28;20237;-51
2021/08/30 12:08:33;;;;;;;9.00;6.95;;;;;;;21.17;59.03;101885.25;6197992;28;21062;-53
2021/08/30 12:11:55;;;;;;;12.07;6.13;;;;;;;21.15;58.28;101889.75;6196256;28;20232;-50
2021/08/30 12:15:19;;;;;;;6.55;5.95;;;;;;;21.44;58.60;101879.84;6201403;28;20236;-53
2021/08/30 12:18:48;;;;;;;7.15;6.45;;;;;;;21.59;57.25;101883.72;6198374;28;20229;-49
2021/08/30 12:22:10;;;;;;;6.82;6.10;;;;;;;21.51;57.32;101891.09;6200106;28;20451;-54
2021/08/30 12:25:33;;;;;;;34.08;10.27;;;;;;;21.87;57.18;101887.94;6187728;28;20236;-47
2021/08/30 12:28:55;;;;;;;5.85;5.35;;;;;;;21.73;56.80;101888.47;6176113;28;20237;-50
2021/08/30 12:32:18;;;;;;;6.60;5.47;;;;;;;21.71;55.62;101888.53;6161056;28;20230;-48
2021/08/30 12:35:41;;;;;;;5.68;5.05;;;;;;;21.81;56.48;101889.94;6173492;28;20603;-46
2021/08/30 12:39:03;;;;;;;6.63;6.07;;;;;;;21.48;57.55;101889.44;6157052;28;20253;-49
2021/08/30 12:42:24;;;;;;;6.03;5.53;;;;;;;21.55;56.99;101895.38;6174918;28;20318;-50
2021/08/30 12:45:46;;;;;;;7.60;6.82;;;;;;;21.18;58.04;101894.06;6166846;28;20227;-49
2021/08/30 12:49:08;;;;;;;7.15;6.53;;;;;;;20.94;58.33;101904.63;6186506;28;20229;-49
2021/08/30 12:52:29;;;;;;;6.40;5.20;;;;;;;20.81;58.94;101905.97;6192825;28;20237;-50
2021/08/30 12:55:50;;;;;;;6.45;5.82;;;;;;;20.97;59.23;101896.53;6194427;28;20626;-53
2021/08/30 12:59:11;;;;;;;7.05;6.45;;;;;;;20.68;58.71;101904.66;6187418;28;20511;-48
2021/08/30 13:02:31;;;;;;;8.60;6.68;;;;;;;21.05;58.75;101898.91;6179573;28;21735;-53
2021/08/30 13:05:55;;;;;;;6.35;5.85;;;;;;;21.59;57.09;101899.63;6180068;28;20233;-52
2021/08/30 13:09:16;;;;;;;7.55;6.95;;;;;;;21.35;56.82;101896.09;6187447;28;20233;-49
2021/08/30 13:12:38;;;;;;;6.75;6.05;;;;;;;21.61;56.85;101897.78;6202317;28;20248;-55
2021/08/30 13:15:59;;;;;;;7.03;6.32;;;;;;;21.56;57.11;101899.75;6206354;28;20237;-51
2021/08/30 13:19:19;;;;;;;6.85;6.15;;;;;;;21.70;56.79;101894.78;6201051;28;20233;-51
2021/08/30 13:22:42;;;;;;;8.55;7.78;;;;;;;21.13;57.96;101896.00;6201266;28;20233;-48
2021/08/30 13:26:03;;;;;;;7.53;6.93;;;;;;;21.71;56.54;101883.22;6197888;28;20324;-51
2021/08/30 13:29:24;;;;;;;8.20;7.43;;;;;;;21.33;57.53;101892.63;6191239;28;20707;-57
2021/08/30 13:32:45;;;;;;;8.75;8.05;;;;;;;21.68;56.78;101883.38;6204614;28;20599;-49
2021/08/30 13:36:07;;;;;;;7.65;6.88;;;;;;;24.13;51.16;101880.69;6185626;28;20600;-50
2021/08/30 13:39:30;;;;;;;6.82;6.25;;;;;;;24.69;48.28;101884.13;6181391;28;20329;-50
2021/08/30 13:42:50;;;;;;;7.10;6.38;;;;;;;26.08;45.26;101877.50;6180892;28;20226;-52
2021/08/30 13:46:11;;;;;;;6.35;5.85;;;;;;;24.77;47.66;101888.09;6180524;28;20234;-49
2021/08/30 13:49:32;;;;;;;7.18;6.47;;;;;;;25.18;45.94;101878.00;6201317;28;20229;-48
2021/08/30 13:52:55;;;;;;;6.63;6.03;;;;;;;23.85;49.71;101881.19;6196431;28;20579;-52
2021/08/30 13:56:17;;;;;;;6.85;6.35;;;;;;;23.24;51.75;101880.41;6201414;28;20257;-52
2021/08/30 13:59:39;;;;;;;6.72;6.13;;;;;;;24.75;48.80;101883.78;6186592;28;20237;-52
2021/08/30 14:03:00;;;;;;;7.32;6.72;;;;;;;26.15;44.63;101880.66;6191859;28;20237;-53
2021/08/30 14:06:21;;;;;;;10.25;9.30;;;;;;;28.27;39.35;101871.00;6183923;28;20234;-50
2021/08/30 14:09:42;;;;;;;6.13;5.57;;;;;;;25.96;43.94;101873.72;6160486;28;20246;-51
2021/08/30 14:13:05;;;;;;;6.25;5.75;;;;;;;25.08;46.25;101880.28;6199151;28;20413;-50
2021/08/30 14:16:26;;;;;;;7.07;5.75;;;;;;;24.63;47.75;101887.09;6202467;28;20524;-50
2021/08/30 14:19:47;;;;;;;7.55;6.85;;;;;;;23.33;50.11;101887.97;6178939;28;20237;-48
2021/08/30 14:23:09;;;;;;;7.22;6.55;;;;;;;25.55;46.02;101884.88;6190512;28;20221;-48
2021/08/30 14:26:29;;;;;;;11.20;10.07;;;;;;;25.43;45.25;101883.75;6193627;28;20225;-46
2021/08/30 14:29:52;;;;;;;6.80;6.30;;;;;;;26.52;43.22;101877.53;6210783;28;20618;-51
2021/08/30 14:33:13;;;;;;;6.38;5.82;;;;;;;26.73;42.51;101881.72;6203971;28;20595;-48
2021/08/30 14:36:34;;;;;;;8.10;7.30;;;;;;;27.37;41.18;101885.75;6208486;28;20257;-50
2021/08/30 14:39:55;;;;;;;5.85;5.35;;;;;;;26.40;43.21;101880.06;6207231;28;20238;-50
2021/08/30 14:43:16;;;;;;;7.25;6.13;;;;;;;25.37;44.99;101888.56;6205907;28;20229;-49
2021/08/30 14:46:39;;;;;;;5.65;5.25;;;;;;;24.64;47.05;101891.47;6183703;28;20237;-52
2021/08/30 14:50:00;;;;;;;6.60;6.10;;;;;;;23.83;48.46;101891.03;6203645;28;20256;-52
2021/08/30 14:53:21;;;;;;;6.32;5.72;;;;;;;23.78;49.49;101886.78;6203010;28;20225;-48
2021/08/30 14:56:42;;;;;;;8.10;5.80;;;;;;;23.75;49.26;101886.06;6207793;28;20240;-48
2021/08/30 15:00:04;;;;;;;7.25;6.55;;;;;;;23.30;49.62;101885.47;6190135;28;20230;-49
2021/08/30 15:03:26;;;;;;;7.97;6.32;;;;;;;22.71;51.93;101880.97;6178393;28;20245;-50
2021/08/30 15:06:47;;;;;;;5.63;5.22;;;;;;;22.67;52.18;101879.41;6184965;28;20749;-49
2021/08/30 15:10:09;;;;;;;7.10;6.43;;;;;;;22.07;52.46;101880.06;6203699;28;20319;-48
2021/08/30 15:13:31;;;;;;;6.18;5.68;;;;;;;22.14;53.26;101888.63;6209557;28;20587;-53
2021/08/30 15:16:51;;;;;;;6.50;5.63;;;;;;;22.03;53.13;101894.38;6189399;28;21372;-47
2021/08/30 15:20:14;;;;;;;5.78;5.28;;;;;;;22.23;52.99;101889.09;6207161;28;20229;-51
2021/08/30 15:23:35;;;;;;;5.00;4.47;;;;;;;22.27;53.33;101896.97;6206092;28;20229;-49
2021/08/30 15:26:55;;;;;;;7.18;6.55;;;;;;;22.25;53.66;101896.19;6189641;28;20234;-48
2021/08/30 15:30:17;;;;;;;6.15;5.55;;;;;;;22.22;53.73;101891.84;6199728;28;20241;-46